sensor_id;sensor_type;location;lat;lon;timestamp;temperature;humidity
42201;DHT22;27869;51.442;7.540;2024-02-28T00:02:00;1.20;99.90
42201;DHT22;27869;51.442;7.540;2024-02-28T00:04:28;1.20;99.90
42201;DHT22;27869;51.442;7.540;2024-02-28T00:06:55;1.30;99.90
42201;DHT22;27869;51.442;7.540;2024-02-28T00:09:22;1.30;99.90
42201;DHT22;27869;51.442;7.540;2024-02-28T00:11:49;1.30;99.90
42201;DHT22;27869;51.442;7.540;2024-02-28T00:14:16;1.30;99.90
42201;DHT22;27869;51.442;7.540;2024-02-28T00:16:44;1.40;99.90
42201;DHT22;27869;51.442;7.540;2024-02-28T00:19:13;1.40;99.90
42201;DHT22;27869;51.442;7.540;2024-02-28T00:21:41;1.40;99.90
42201;DHT22;27869;51.442;7.540;2024-02-28T00:24:08;1.40;99.90
42201;DHT22;27869;51.442;7.540;2024-02-28T00:26:36;1.40;99.90
42201;DHT22;27869;51.442;7.540;2024-02-28T00:29:02;1.50;99.90
42201;DHT22;27869;51.442;7.540;2024-02-28T00:31:29;1.50;99.90
42201;DHT22;27869;51.442;7.540;2024-02-28T00:33:56;1.50;99.90
42201;DHT22;27869;51.442;7.540;2024-02-28T00:36:22;1.50;99.90
42201;DHT22;27869;51.442;7.540;2024-02-28T00:38:50;1.60;99.90
42201;DHT22;27869;51.442;7.540;2024-02-28T00:41:17;1.60;99.90
42201;DHT22;27869;51.442;7.540;2024-02-28T00:43:44;1.60;99.90
42201;DHT22;27869;51.442;7.540;2024-02-28T00:46:11;1.60;99.90
42201;DHT22;27869;51.442;7.540;2024-02-28T00:48:38;1.70;99.90
42201;DHT22;27869;51.442;7.540;2024-02-28T00:51:05;1.70;99.90
42201;DHT22;27869;51.442;7.540;2024-02-28T00:53:36;1.70;99.90
42201;DHT22;27869;51.442;7.540;2024-02-28T00:56:05;1.70;99.90
42201;DHT22;27869;51.442;7.540;2024-02-28T00:58:32;1.70;99.90
42201;DHT22;27869;51.442;7.540;2024-02-28T01:00:59;1.70;99.90
42201;DHT22;27869;51.442;7.540;2024-02-28T01:03:26;1.70;99.90
42201;DHT22;27869;51.442;7.540;2024-02-28T01:05:53;1.70;99.90
42201;DHT22;27869;51.442;7.540;2024-02-28T01:08:20;1.70;99.90
42201;DHT22;27869;51.442;7.540;2024-02-28T01:10:46;1.70;99.90
42201;DHT22;27869;51.442;7.540;2024-02-28T01:13:15;1.80;99.90
42201;DHT22;27869;51.442;7.540;2024-02-28T01:15:42;1.70;99.90
42201;DHT22;27869;51.442;7.540;2024-02-28T01:18:09;1.80;99.90
42201;DHT22;27869;51.442;7.540;2024-02-28T01:20:36;1.80;99.90
42201;DHT22;27869;51.442;7.540;2024-02-28T01:23:03;1.80;99.90
42201;DHT22;27869;51.442;7.540;2024-02-28T01:25:30;1.90;99.90
42201;DHT22;27869;51.442;7.540;2024-02-28T01:27:57;1.90;99.90
42201;DHT22;27869;51.442;7.540;2024-02-28T01:30:26;1.90;99.90
42201;DHT22;27869;51.442;7.540;2024-02-28T01:32:53;2.00;99.90
42201;DHT22;27869;51.442;7.540;2024-02-28T01:35:19;2.00;99.90
42201;DHT22;27869;51.442;7.540;2024-02-28T01:37:47;2.10;99.90
42201;DHT22;27869;51.442;7.540;2024-02-28T01:40:14;2.10;99.90
42201;DHT22;27869;51.442;7.540;2024-02-28T01:42:41;2.10;99.90
42201;DHT22;27869;51.442;7.540;2024-02-28T01:45:11;2.10;99.90
42201;DHT22;27869;51.442;7.540;2024-02-28T01:47:41;2.10;99.90
42201;DHT22;27869;51.442;7.540;2024-02-28T01:50:09;2.10;99.90
42201;DHT22;27869;51.442;7.540;2024-02-28T01:52:36;2.10;99.90
42201;DHT22;27869;51.442;7.540;2024-02-28T01:55:04;2.10;99.90
42201;DHT22;27869;51.442;7.540;2024-02-28T01:57:32;2.10;99.90
42201;DHT22;27869;51.442;7.540;2024-02-28T01:59:59;2.10;99.90
42201;DHT22;27869;51.442;7.540;2024-02-28T02:02:26;2.10;99.90
42201;DHT22;27869;51.442;7.540;2024-02-28T02:04:54;2.10;99.90
42201;DHT22;27869;51.442;7.540;2024-02-28T02:07:23;2.10;99.90
42201;DHT22;27869;51.442;7.540;2024-02-28T02:09:51;2.10;99.90
42201;DHT22;27869;51.442;7.540;2024-02-28T02:12:18;2.10;99.90
42201;DHT22;27869;51.442;7.540;2024-02-28T02:14:47;2.10;99.90
42201;DHT22;27869;51.442;7.540;2024-02-28T02:17:14;2.10;99.90
42201;DHT22;27869;51.442;7.540;2024-02-28T02:19:41;2.10;99.90
42201;DHT22;27869;51.442;7.540;2024-02-28T02:22:11;2.10;99.90
42201;DHT22;27869;51.442;7.540;2024-02-28T02:24:41;2.10;99.90
42201;DHT22;27869;51.442;7.540;2024-02-28T02:27:08;2.10;99.90
42201;DHT22;27869;51.442;7.540;2024-02-28T02:29:35;2.10;99.90
42201;DHT22;27869;51.442;7.540;2024-02-28T02:32:01;2.10;99.90
42201;DHT22;27869;51.442;7.540;2024-02-28T02:34:28;2.10;99.90
42201;DHT22;27869;51.442;7.540;2024-02-28T02:36:55;2.10;99.90
42201;DHT22;27869;51.442;7.540;2024-02-28T02:39:22;2.10;99.90
42201;DHT22;27869;51.442;7.540;2024-02-28T02:41:50;2.10;99.90
42201;DHT22;27869;51.442;7.540;2024-02-28T02:44:17;2.10;99.90
42201;DHT22;27869;51.442;7.540;2024-02-28T02:46:44;2.10;99.90
42201;DHT22;27869;51.442;7.540;2024-02-28T02:49:11;2.10;99.90
42201;DHT22;27869;51.442;7.540;2024-02-28T02:51:38;2.20;99.90
42201;DHT22;27869;51.442;7.540;2024-02-28T02:54:05;2.10;99.90
42201;DHT22;27869;51.442;7.540;2024-02-28T02:56:31;2.10;99.90
42201;DHT22;27869;51.442;7.540;2024-02-28T02:58:59;2.20;99.90
42201;DHT22;27869;51.442;7.540;2024-02-28T03:01:26;2.20;99.90
42201;DHT22;27869;51.442;7.540;2024-02-28T03:03:54;2.20;99.90
42201;DHT22;27869;51.442;7.540;2024-02-28T03:06:20;2.20;99.90
42201;DHT22;27869;51.442;7.540;2024-02-28T03:08:49;2.20;99.90
42201;DHT22;27869;51.442;7.540;2024-02-28T03:11:16;2.20;99.90
42201;DHT22;27869;51.442;7.540;2024-02-28T03:13:43;2.20;99.90
42201;DHT22;27869;51.442;7.540;2024-02-28T03:16:11;2.20;99.90
42201;DHT22;27869;51.442;7.540;2024-02-28T03:18:38;2.20;99.90
42201;DHT22;27869;51.442;7.540;2024-02-28T03:21:05;2.20;99.90
42201;DHT22;27869;51.442;7.540;2024-02-28T03:23:33;2.20;99.90
42201;DHT22;27869;51.442;7.540;2024-02-28T03:26:01;2.10;99.90
42201;DHT22;27869;51.442;7.540;2024-02-28T03:28:28;2.10;99.90
42201;DHT22;27869;51.442;7.540;2024-02-28T03:30:55;2.10;99.90
42201;DHT22;27869;51.442;7.540;2024-02-28T03:33:23;2.10;99.90
42201;DHT22;27869;51.442;7.540;2024-02-28T03:35:50;2.10;99.90
42201;DHT22;27869;51.442;7.540;2024-02-28T03:38:17;2.10;99.90
42201;DHT22;27869;51.442;7.540;2024-02-28T03:40:44;2.10;99.90
42201;DHT22;27869;51.442;7.540;2024-02-28T03:43:11;2.10;99.90
42201;DHT22;27869;51.442;7.540;2024-02-28T03:45:39;2.00;99.90
42201;DHT22;27869;51.442;7.540;2024-02-28T03:48:06;2.00;99.90
42201;DHT22;27869;51.442;7.540;2024-02-28T03:50:34;2.00;99.90
42201;DHT22;27869;51.442;7.540;2024-02-28T03:53:01;2.00;99.90
42201;DHT22;27869;51.442;7.540;2024-02-28T03:55:28;2.00;99.90
42201;DHT22;27869;51.442;7.540;2024-02-28T03:57:55;2.00;99.90
42201;DHT22;27869;51.442;7.540;2024-02-28T04:00:22;2.00;99.90
42201;DHT22;27869;51.442;7.540;2024-02-28T04:02:48;2.10;99.90
42201;DHT22;27869;51.442;7.540;2024-02-28T04:05:15;2.10;99.90
42201;DHT22;27869;51.442;7.540;2024-02-28T04:07:44;2.10;99.90
42201;DHT22;27869;51.442;7.540;2024-02-28T04:10:11;2.10;99.90
42201;DHT22;27869;51.442;7.540;2024-02-28T04:12:38;2.10;99.90
42201;DHT22;27869;51.442;7.540;2024-02-28T04:15:05;2.10;99.90
42201;DHT22;27869;51.442;7.540;2024-02-28T04:17:32;2.10;99.90
42201;DHT22;27869;51.442;7.540;2024-02-28T04:19:59;2.10;99.90
42201;DHT22;27869;51.442;7.540;2024-02-28T04:22:30;2.10;99.90
42201;DHT22;27869;51.442;7.540;2024-02-28T04:24:58;2.00;99.90
42201;DHT22;27869;51.442;7.540;2024-02-28T04:27:25;2.00;99.90
42201;DHT22;27869;51.442;7.540;2024-02-28T04:29:51;2.00;99.90
42201;DHT22;27869;51.442;7.540;2024-02-28T04:32:18;2.00;99.90
42201;DHT22;27869;51.442;7.540;2024-02-28T04:34:45;2.00;99.90
42201;DHT22;27869;51.442;7.540;2024-02-28T04:37:12;2.00;99.90
42201;DHT22;27869;51.442;7.540;2024-02-28T04:39:40;2.00;99.90
42201;DHT22;27869;51.442;7.540;2024-02-28T04:42:08;2.00;99.90
42201;DHT22;27869;51.442;7.540;2024-02-28T04:44:35;2.00;99.90
42201;DHT22;27869;51.442;7.540;2024-02-28T04:47:02;2.00;99.90
42201;DHT22;27869;51.442;7.540;2024-02-28T04:49:29;2.00;99.90
42201;DHT22;27869;51.442;7.540;2024-02-28T04:51:56;2.00;99.90
42201;DHT22;27869;51.442;7.540;2024-02-28T04:54:24;2.00;99.90
42201;DHT22;27869;51.442;7.540;2024-02-28T04:56:51;2.00;99.90
42201;DHT22;27869;51.442;7.540;2024-02-28T04:59:19;2.00;99.90
42201;DHT22;27869;51.442;7.540;2024-02-28T05:01:46;2.00;99.90
42201;DHT22;27869;51.442;7.540;2024-02-28T05:04:13;2.00;99.90
42201;DHT22;27869;51.442;7.540;2024-02-28T05:06:40;2.00;99.90
42201;DHT22;27869;51.442;7.540;2024-02-28T05:09:07;2.00;99.90
42201;DHT22;27869;51.442;7.540;2024-02-28T05:11:34;2.00;99.90
42201;DHT22;27869;51.442;7.540;2024-02-28T05:14:01;2.00;99.90
42201;DHT22;27869;51.442;7.540;2024-02-28T05:16:29;2.00;99.90
42201;DHT22;27869;51.442;7.540;2024-02-28T05:18:57;2.00;99.90
42201;DHT22;27869;51.442;7.540;2024-02-28T05:21:24;2.00;99.90
42201;DHT22;27869;51.442;7.540;2024-02-28T05:23:51;2.10;99.90
42201;DHT22;27869;51.442;7.540;2024-02-28T05:26:18;2.10;99.90
42201;DHT22;27869;51.442;7.540;2024-02-28T05:28:44;2.10;99.90
42201;DHT22;27869;51.442;7.540;2024-02-28T05:31:21;2.10;99.90
42201;DHT22;27869;51.442;7.540;2024-02-28T05:33:50;2.10;99.90
42201;DHT22;27869;51.442;7.540;2024-02-28T05:36:17;2.10;99.90
42201;DHT22;27869;51.442;7.540;2024-02-28T05:38:44;2.10;99.90
42201;DHT22;27869;51.442;7.540;2024-02-28T05:41:11;2.20;99.90
42201;DHT22;27869;51.442;7.540;2024-02-28T05:43:38;2.20;99.90
42201;DHT22;27869;51.442;7.540;2024-02-28T05:46:05;2.20;99.90
42201;DHT22;27869;51.442;7.540;2024-02-28T05:48:32;2.20;99.90
42201;DHT22;27869;51.442;7.540;2024-02-28T05:51:01;2.20;99.90
42201;DHT22;27869;51.442;7.540;2024-02-28T05:53:28;2.20;99.90
42201;DHT22;27869;51.442;7.540;2024-02-28T05:55:58;2.20;99.90
42201;DHT22;27869;51.442;7.540;2024-02-28T05:58:25;2.20;99.90
42201;DHT22;27869;51.442;7.540;2024-02-28T06:00:52;2.20;99.90
42201;DHT22;27869;51.442;7.540;2024-02-28T06:03:19;2.20;99.90
42201;DHT22;27869;51.442;7.540;2024-02-28T06:05:46;2.20;99.90
42201;DHT22;27869;51.442;7.540;2024-02-28T06:08:15;2.20;99.90
42201;DHT22;27869;51.442;7.540;2024-02-28T06:10:42;2.20;99.90
42201;DHT22;27869;51.442;7.540;2024-02-28T06:13:08;2.20;99.90
42201;DHT22;27869;51.442;7.540;2024-02-28T06:15:35;2.20;99.90
42201;DHT22;27869;51.442;7.540;2024-02-28T06:18:02;2.20;99.90
42201;DHT22;27869;51.442;7.540;2024-02-28T06:20:30;2.20;99.90
42201;DHT22;27869;51.442;7.540;2024-02-28T06:22:57;2.20;99.90
42201;DHT22;27869;51.442;7.540;2024-02-28T06:25:25;2.20;99.90
42201;DHT22;27869;51.442;7.540;2024-02-28T06:27:53;2.20;99.90
42201;DHT22;27869;51.442;7.540;2024-02-28T06:30:20;2.20;99.90
42201;DHT22;27869;51.442;7.540;2024-02-28T06:32:47;2.20;99.90
42201;DHT22;27869;51.442;7.540;2024-02-28T06:35:14;2.20;99.90
42201;DHT22;27869;51.442;7.540;2024-02-28T06:37:44;2.20;99.90
42201;DHT22;27869;51.442;7.540;2024-02-28T06:40:15;2.20;99.90
42201;DHT22;27869;51.442;7.540;2024-02-28T06:42:44;2.20;99.90
42201;DHT22;27869;51.442;7.540;2024-02-28T06:45:11;2.20;99.90
42201;DHT22;27869;51.442;7.540;2024-02-28T06:47:38;2.20;99.90
42201;DHT22;27869;51.442;7.540;2024-02-28T06:50:06;2.30;99.90
42201;DHT22;27869;51.442;7.540;2024-02-28T06:52:33;2.30;99.90
42201;DHT22;27869;51.442;7.540;2024-02-28T06:55:00;2.30;99.90
42201;DHT22;27869;51.442;7.540;2024-02-28T06:57:29;2.30;99.90
42201;DHT22;27869;51.442;7.540;2024-02-28T06:59:57;2.30;99.90
42201;DHT22;27869;51.442;7.540;2024-02-28T07:02:24;2.30;99.90
42201;DHT22;27869;51.442;7.540;2024-02-28T07:04:52;2.40;99.90
42201;DHT22;27869;51.442;7.540;2024-02-28T07:07:19;2.40;99.90
42201;DHT22;27869;51.442;7.540;2024-02-28T07:09:45;2.40;99.90
42201;DHT22;27869;51.442;7.540;2024-02-28T07:12:12;2.40;99.90
42201;DHT22;27869;51.442;7.540;2024-02-28T07:14:39;2.40;99.90
42201;DHT22;27869;51.442;7.540;2024-02-28T07:17:07;2.40;99.90
42201;DHT22;27869;51.442;7.540;2024-02-28T07:19:36;2.50;99.90
42201;DHT22;27869;51.442;7.540;2024-02-28T07:22:04;2.50;99.90
42201;DHT22;27869;51.442;7.540;2024-02-28T07:24:32;2.50;99.90
42201;DHT22;27869;51.442;7.540;2024-02-28T07:26:59;2.50;99.90
42201;DHT22;27869;51.442;7.540;2024-02-28T07:29:27;2.50;99.90
42201;DHT22;27869;51.442;7.540;2024-02-28T07:31:54;2.50;99.90
42201;DHT22;27869;51.442;7.540;2024-02-28T07:34:22;2.60;99.90
42201;DHT22;27869;51.442;7.540;2024-02-28T07:36:49;2.60;99.90
42201;DHT22;27869;51.442;7.540;2024-02-28T07:39:16;2.60;99.90
42201;DHT22;27869;51.442;7.540;2024-02-28T07:41:43;2.70;99.90
42201;DHT22;27869;51.442;7.540;2024-02-28T07:44:10;2.70;99.90
42201;DHT22;27869;51.442;7.540;2024-02-28T07:46:37;2.80;99.90
42201;DHT22;27869;51.442;7.540;2024-02-28T07:49:04;2.80;99.90
42201;DHT22;27869;51.442;7.540;2024-02-28T07:51:32;2.80;99.90
42201;DHT22;27869;51.442;7.540;2024-02-28T07:53:59;2.80;99.90
42201;DHT22;27869;51.442;7.540;2024-02-28T07:56:26;2.90;99.90
42201;DHT22;27869;51.442;7.540;2024-02-28T07:58:53;2.90;99.90
42201;DHT22;27869;51.442;7.540;2024-02-28T08:01:20;3.00;99.90
42201;DHT22;27869;51.442;7.540;2024-02-28T08:03:48;3.00;99.90
42201;DHT22;27869;51.442;7.540;2024-02-28T08:06:15;3.10;99.90
42201;DHT22;27869;51.442;7.540;2024-02-28T08:08:45;3.10;99.90
42201;DHT22;27869;51.442;7.540;2024-02-28T08:11:12;3.20;99.90
42201;DHT22;27869;51.442;7.540;2024-02-28T08:13:39;3.20;99.90
42201;DHT22;27869;51.442;7.540;2024-02-28T08:16:06;3.20;99.90
42201;DHT22;27869;51.442;7.540;2024-02-28T08:18:34;3.30;99.90
42201;DHT22;27869;51.442;7.540;2024-02-28T08:21:02;3.30;99.90
42201;DHT22;27869;51.442;7.540;2024-02-28T08:23:29;3.30;99.90
42201;DHT22;27869;51.442;7.540;2024-02-28T08:25:57;3.40;99.90
42201;DHT22;27869;51.442;7.540;2024-02-28T08:28:24;3.40;99.90
42201;DHT22;27869;51.442;7.540;2024-02-28T08:30:51;3.40;99.90
42201;DHT22;27869;51.442;7.540;2024-02-28T08:33:18;3.50;99.90
42201;DHT22;27869;51.442;7.540;2024-02-28T08:35:45;3.50;99.90
42201;DHT22;27869;51.442;7.540;2024-02-28T08:38:12;3.50;99.90
42201;DHT22;27869;51.442;7.540;2024-02-28T08:40:39;3.50;99.90
42201;DHT22;27869;51.442;7.540;2024-02-28T08:43:07;3.60;99.90
42201;DHT22;27869;51.442;7.540;2024-02-28T08:45:34;3.60;99.90
42201;DHT22;27869;51.442;7.540;2024-02-28T08:48:01;3.70;99.90
42201;DHT22;27869;51.442;7.540;2024-02-28T08:50:28;3.70;99.90
42201;DHT22;27869;51.442;7.540;2024-02-28T08:52:55;3.80;99.90
42201;DHT22;27869;51.442;7.540;2024-02-28T08:55:23;3.80;99.90
42201;DHT22;27869;51.442;7.540;2024-02-28T08:57:50;3.90;99.90
42201;DHT22;27869;51.442;7.540;2024-02-28T09:00:18;3.90;99.90
42201;DHT22;27869;51.442;7.540;2024-02-28T09:02:45;3.90;99.90
42201;DHT22;27869;51.442;7.540;2024-02-28T09:05:12;4.00;99.90
42201;DHT22;27869;51.442;7.540;2024-02-28T09:07:40;4.10;99.90
42201;DHT22;27869;51.442;7.540;2024-02-28T09:10:07;4.10;99.90
42201;DHT22;27869;51.442;7.540;2024-02-28T09:12:33;4.20;99.90
42201;DHT22;27869;51.442;7.540;2024-02-28T09:15:00;4.20;99.90
42201;DHT22;27869;51.442;7.540;2024-02-28T09:17:28;4.30;99.90
42201;DHT22;27869;51.442;7.540;2024-02-28T09:19:56;4.40;99.90
42201;DHT22;27869;51.442;7.540;2024-02-28T09:22:26;4.40;99.90
42201;DHT22;27869;51.442;7.540;2024-02-28T09:24:53;4.50;99.90
42201;DHT22;27869;51.442;7.540;2024-02-28T09:27:19;4.50;99.90
42201;DHT22;27869;51.442;7.540;2024-02-28T09:29:46;4.60;99.90
42201;DHT22;27869;51.442;7.540;2024-02-28T09:32:12;4.60;99.90
42201;DHT22;27869;51.442;7.540;2024-02-28T09:34:41;4.60;99.90
42201;DHT22;27869;51.442;7.540;2024-02-28T09:37:08;4.60;99.90
42201;DHT22;27869;51.442;7.540;2024-02-28T09:39:37;4.70;99.90
42201;DHT22;27869;51.442;7.540;2024-02-28T09:42:04;4.70;99.90
42201;DHT22;27869;51.442;7.540;2024-02-28T09:44:32;4.70;99.90
42201;DHT22;27869;51.442;7.540;2024-02-28T09:46:59;4.80;99.90
42201;DHT22;27869;51.442;7.540;2024-02-28T09:49:27;4.80;99.90
42201;DHT22;27869;51.442;7.540;2024-02-28T09:51:57;4.80;99.90
42201;DHT22;27869;51.442;7.540;2024-02-28T09:54:25;4.90;99.90
42201;DHT22;27869;51.442;7.540;2024-02-28T09:56:52;4.90;99.90
42201;DHT22;27869;51.442;7.540;2024-02-28T09:59:19;5.00;99.90
42201;DHT22;27869;51.442;7.540;2024-02-28T10:01:57;5.00;99.90
42201;DHT22;27869;51.442;7.540;2024-02-28T10:04:26;5.10;99.90
42201;DHT22;27869;51.442;7.540;2024-02-28T10:06:55;5.20;99.90
42201;DHT22;27869;51.442;7.540;2024-02-28T10:09:22;5.20;99.90
42201;DHT22;27869;51.442;7.540;2024-02-28T10:11:49;5.30;99.90
42201;DHT22;27869;51.442;7.540;2024-02-28T10:14:19;5.30;99.90
42201;DHT22;27869;51.442;7.540;2024-02-28T10:16:46;5.30;99.90
42201;DHT22;27869;51.442;7.540;2024-02-28T10:19:13;5.40;99.90
42201;DHT22;27869;51.442;7.540;2024-02-28T10:21:40;5.40;99.90
42201;DHT22;27869;51.442;7.540;2024-02-28T10:24:11;5.50;99.90
42201;DHT22;27869;51.442;7.540;2024-02-28T10:26:43;5.50;99.90
42201;DHT22;27869;51.442;7.540;2024-02-28T10:29:10;5.60;99.90
42201;DHT22;27869;51.442;7.540;2024-02-28T10:31:37;5.70;99.90
42201;DHT22;27869;51.442;7.540;2024-02-28T10:34:04;5.80;99.90
42201;DHT22;27869;51.442;7.540;2024-02-28T10:36:33;5.80;99.90
42201;DHT22;27869;51.442;7.540;2024-02-28T10:39:01;5.90;99.90
42201;DHT22;27869;51.442;7.540;2024-02-28T10:41:31;6.00;99.90
42201;DHT22;27869;51.442;7.540;2024-02-28T10:43:59;6.10;99.90
42201;DHT22;27869;51.442;7.540;2024-02-28T10:46:26;6.10;99.90
42201;DHT22;27869;51.442;7.540;2024-02-28T10:48:53;6.20;99.90
42201;DHT22;27869;51.442;7.540;2024-02-28T10:51:23;6.30;99.90
42201;DHT22;27869;51.442;7.540;2024-02-28T10:54:00;6.40;99.90
42201;DHT22;27869;51.442;7.540;2024-02-28T10:56:30;6.50;99.90
42201;DHT22;27869;51.442;7.540;2024-02-28T10:58:59;6.60;99.90
42201;DHT22;27869;51.442;7.540;2024-02-28T11:01:27;6.60;99.90
42201;DHT22;27869;51.442;7.540;2024-02-28T11:03:54;6.60;99.90
42201;DHT22;27869;51.442;7.540;2024-02-28T11:06:22;6.70;99.90
42201;DHT22;27869;51.442;7.540;2024-02-28T11:08:51;6.80;99.90
42201;DHT22;27869;51.442;7.540;2024-02-28T11:11:20;6.80;99.90
42201;DHT22;27869;51.442;7.540;2024-02-28T11:13:55;6.90;99.90
42201;DHT22;27869;51.442;7.540;2024-02-28T11:16:27;7.00;99.90
42201;DHT22;27869;51.442;7.540;2024-02-28T11:18:54;7.10;99.90
42201;DHT22;27869;51.442;7.540;2024-02-28T11:21:23;7.10;99.90
42201;DHT22;27869;51.442;7.540;2024-02-28T11:23:51;7.20;99.90
42201;DHT22;27869;51.442;7.540;2024-02-28T11:26:18;7.30;99.90
42201;DHT22;27869;51.442;7.540;2024-02-28T11:28:46;7.40;99.90
42201;DHT22;27869;51.442;7.540;2024-02-28T11:31:15;7.40;99.90
42201;DHT22;27869;51.442;7.540;2024-02-28T11:33:42;7.50;99.90
42201;DHT22;27869;51.442;7.540;2024-02-28T11:36:11;7.60;99.90
42201;DHT22;27869;51.442;7.540;2024-02-28T11:38:39;7.60;99.90
42201;DHT22;27869;51.442;7.540;2024-02-28T11:41:06;7.70;99.90
42201;DHT22;27869;51.442;7.540;2024-02-28T11:43:33;7.80;99.90
42201;DHT22;27869;51.442;7.540;2024-02-28T11:46:01;7.80;99.90
42201;DHT22;27869;51.442;7.540;2024-02-28T11:48:29;7.90;99.90
42201;DHT22;27869;51.442;7.540;2024-02-28T11:50:56;8.00;99.90
42201;DHT22;27869;51.442;7.540;2024-02-28T11:53:24;8.00;99.90
42201;DHT22;27869;51.442;7.540;2024-02-28T11:55:53;8.10;99.90
42201;DHT22;27869;51.442;7.540;2024-02-28T11:58:21;8.10;99.90
42201;DHT22;27869;51.442;7.540;2024-02-28T12:00:48;8.20;99.90
42201;DHT22;27869;51.442;7.540;2024-02-28T12:03:20;8.20;99.90
42201;DHT22;27869;51.442;7.540;2024-02-28T12:05:49;8.20;99.90
42201;DHT22;27869;51.442;7.540;2024-02-28T12:08:17;8.30;99.90
42201;DHT22;27869;51.442;7.540;2024-02-28T12:10:45;8.30;99.90
42201;DHT22;27869;51.442;7.540;2024-02-28T12:13:16;8.30;99.90
42201;DHT22;27869;51.442;7.540;2024-02-28T12:15:43;8.40;99.90
42201;DHT22;27869;51.442;7.540;2024-02-28T12:18:11;8.40;99.90
42201;DHT22;27869;51.442;7.540;2024-02-28T12:20:38;8.50;99.90
42201;DHT22;27869;51.442;7.540;2024-02-28T12:23:06;8.50;99.90
42201;DHT22;27869;51.442;7.540;2024-02-28T12:25:33;8.60;99.90
42201;DHT22;27869;51.442;7.540;2024-02-28T12:28:01;8.60;99.90
42201;DHT22;27869;51.442;7.540;2024-02-28T12:30:30;8.60;99.90
42201;DHT22;27869;51.442;7.540;2024-02-28T12:32:57;8.70;99.90
42201;DHT22;27869;51.442;7.540;2024-02-28T12:35:25;8.70;99.90
42201;DHT22;27869;51.442;7.540;2024-02-28T12:37:52;8.70;99.90
42201;DHT22;27869;51.442;7.540;2024-02-28T12:40:20;8.80;99.90
42201;DHT22;27869;51.442;7.540;2024-02-28T12:42:47;8.80;99.90
42201;DHT22;27869;51.442;7.540;2024-02-28T12:45:14;8.80;99.90
42201;DHT22;27869;51.442;7.540;2024-02-28T12:47:41;8.80;99.90
42201;DHT22;27869;51.442;7.540;2024-02-28T12:50:08;8.90;99.90
42201;DHT22;27869;51.442;7.540;2024-02-28T12:52:36;8.90;99.90
42201;DHT22;27869;51.442;7.540;2024-02-28T12:55:03;8.90;99.90
42201;DHT22;27869;51.442;7.540;2024-02-28T12:57:32;9.00;99.90
42201;DHT22;27869;51.442;7.540;2024-02-28T12:59:59;9.00;99.90
42201;DHT22;27869;51.442;7.540;2024-02-28T13:02:26;9.10;99.90
42201;DHT22;27869;51.442;7.540;2024-02-28T13:04:52;9.10;99.90
42201;DHT22;27869;51.442;7.540;2024-02-28T13:07:19;9.10;99.90
42201;DHT22;27869;51.442;7.540;2024-02-28T13:09:48;9.10;99.90
42201;DHT22;27869;51.442;7.540;2024-02-28T13:12:15;9.10;99.90
42201;DHT22;27869;51.442;7.540;2024-02-28T13:14:44;9.10;99.90
42201;DHT22;27869;51.442;7.540;2024-02-28T13:17:11;9.20;99.90
42201;DHT22;27869;51.442;7.540;2024-02-28T13:19:38;9.20;99.90
42201;DHT22;27869;51.442;7.540;2024-02-28T13:22:05;9.20;99.90
42201;DHT22;27869;51.442;7.540;2024-02-28T13:24:32;9.30;99.90
42201;DHT22;27869;51.442;7.540;2024-02-28T13:27:01;9.30;99.90
42201;DHT22;27869;51.442;7.540;2024-02-28T13:29:28;9.40;99.90
42201;DHT22;27869;51.442;7.540;2024-02-28T13:31:58;9.40;99.90
42201;DHT22;27869;51.442;7.540;2024-02-28T13:34:25;9.40;99.90
42201;DHT22;27869;51.442;7.540;2024-02-28T13:36:52;9.40;99.90
42201;DHT22;27869;51.442;7.540;2024-02-28T13:39:19;9.50;99.90
42201;DHT22;27869;51.442;7.540;2024-02-28T13:41:46;9.50;99.90
42201;DHT22;27869;51.442;7.540;2024-02-28T13:44:16;9.50;99.90
42201;DHT22;27869;51.442;7.540;2024-02-28T13:46:44;9.50;99.90
42201;DHT22;27869;51.442;7.540;2024-02-28T13:49:13;9.50;99.90
42201;DHT22;27869;51.442;7.540;2024-02-28T13:51:40;9.50;99.90
42201;DHT22;27869;51.442;7.540;2024-02-28T13:54:08;9.50;99.90
42201;DHT22;27869;51.442;7.540;2024-02-28T13:56:35;9.50;99.90
42201;DHT22;27869;51.442;7.540;2024-02-28T13:59:03;9.50;99.90
42201;DHT22;27869;51.442;7.540;2024-02-28T14:01:30;9.50;99.90
42201;DHT22;27869;51.442;7.540;2024-02-28T14:03:56;9.60;99.90
42201;DHT22;27869;51.442;7.540;2024-02-28T14:06:24;9.60;99.90
42201;DHT22;27869;51.442;7.540;2024-02-28T14:08:51;9.60;99.90
42201;DHT22;27869;51.442;7.540;2024-02-28T14:11:19;9.60;99.90
42201;DHT22;27869;51.442;7.540;2024-02-28T14:13:46;9.70;99.90
42201;DHT22;27869;51.442;7.540;2024-02-28T14:16:13;9.70;99.90
42201;DHT22;27869;51.442;7.540;2024-02-28T14:18:40;9.70;99.90
42201;DHT22;27869;51.442;7.540;2024-02-28T14:21:07;9.70;99.90
42201;DHT22;27869;51.442;7.540;2024-02-28T14:23:35;9.70;99.90
42201;DHT22;27869;51.442;7.540;2024-02-28T14:26:02;9.70;99.90
42201;DHT22;27869;51.442;7.540;2024-02-28T14:28:29;9.70;99.90
42201;DHT22;27869;51.442;7.540;2024-02-28T14:30:56;9.70;99.90
42201;DHT22;27869;51.442;7.540;2024-02-28T14:33:23;9.70;99.90
42201;DHT22;27869;51.442;7.540;2024-02-28T14:35:50;9.70;99.90
42201;DHT22;27869;51.442;7.540;2024-02-28T14:38:18;9.70;99.90
42201;DHT22;27869;51.442;7.540;2024-02-28T14:40:47;9.70;99.90
42201;DHT22;27869;51.442;7.540;2024-02-28T14:43:13;9.70;99.90
42201;DHT22;27869;51.442;7.540;2024-02-28T14:45:41;9.60;99.90
42201;DHT22;27869;51.442;7.540;2024-02-28T14:48:08;9.70;99.90
42201;DHT22;27869;51.442;7.540;2024-02-28T14:50:35;9.60;99.90
42201;DHT22;27869;51.442;7.540;2024-02-28T14:53:03;9.70;99.90
42201;DHT22;27869;51.442;7.540;2024-02-28T14:55:30;9.70;99.90
42201;DHT22;27869;51.442;7.540;2024-02-28T14:57:58;9.70;99.90
42201;DHT22;27869;51.442;7.540;2024-02-28T15:00:26;9.60;99.90
42201;DHT22;27869;51.442;7.540;2024-02-28T15:02:54;9.70;99.90
42201;DHT22;27869;51.442;7.540;2024-02-28T15:05:20;9.70;99.90
42201;DHT22;27869;51.442;7.540;2024-02-28T15:07:47;9.70;99.90
42201;DHT22;27869;51.442;7.540;2024-02-28T15:10:14;9.70;99.90
42201;DHT22;27869;51.442;7.540;2024-02-28T15:12:41;9.70;99.90
42201;DHT22;27869;51.442;7.540;2024-02-28T15:15:11;9.70;99.90
42201;DHT22;27869;51.442;7.540;2024-02-28T15:17:38;9.70;99.90
42201;DHT22;27869;51.442;7.540;2024-02-28T15:20:06;9.70;99.90
42201;DHT22;27869;51.442;7.540;2024-02-28T15:22:34;9.70;99.90
42201;DHT22;27869;51.442;7.540;2024-02-28T15:25:00;9.70;99.90
42201;DHT22;27869;51.442;7.540;2024-02-28T15:27:28;9.70;99.90
42201;DHT22;27869;51.442;7.540;2024-02-28T15:29:55;9.70;99.90
42201;DHT22;27869;51.442;7.540;2024-02-28T15:32:24;9.70;99.90
42201;DHT22;27869;51.442;7.540;2024-02-28T15:34:50;9.70;99.90
42201;DHT22;27869;51.442;7.540;2024-02-28T15:37:18;9.60;99.90
42201;DHT22;27869;51.442;7.540;2024-02-28T15:39:45;9.60;99.90
42201;DHT22;27869;51.442;7.540;2024-02-28T15:42:12;9.60;99.90
42201;DHT22;27869;51.442;7.540;2024-02-28T15:44:39;9.60;99.90
42201;DHT22;27869;51.442;7.540;2024-02-28T15:47:07;9.60;99.90